MUC | München Airways

 METAR UND TAF INFORMATION

METAR FOR LCPH
ADDS - METARS form results

(0858 UTC 22 March 2019)
Data provider http://aviationweather.gov/metar/data/
 
METAR text: LCPH 220830Z 15006KT CAVOK 20/14 Q1017
Conditions at: LCPH (PAPHOS/BAF INTL , CY) observed 0830 UTC 22 March 2019
Temperature: 20.0°C (68°F)
Dewpoint: 14.0°C (57°F) [RH = 68%]
Pressure (altimeter): 30.03 inches Hg (1017.0 mb)
Winds: from the SSE (150 degrees) at 7 MPH (6 knots; 3.1 m/s)
Visibility: 6 or more miles (10+ km)
Ceiling: ceiling and visibility are OK
Clouds: unknown
Weather: no significant weather observed at this time

METAR text: LCPH 220800Z 15007KT CAVOK 19/11 Q1017
Conditions at: LCPH (PAPHOS/BAF INTL , CY) observed 0800 UTC 22 March 2019
Temperature: 19.0°C (66°F)
Dewpoint: 11.0°C (52°F) [RH = 60%]
Pressure (altimeter): 30.03 inches Hg (1017.0 mb)
Winds: from the SSE (150 degrees) at 8 MPH (7 knots; 3.6 m/s)
Visibility: 6 or more miles (10+ km)
Ceiling: ceiling and visibility are OK
Clouds: unknown
Weather: no significant weather observed at this time

Forecast for: LCPH (PAPHOS/BAF INTL , CY)
Text: TAF LCPH 220530Z 2206/2306 03007KT 9999 FEW020
Forecast period: 0600 to 0900 UTC 22 March 2019
Forecast type: FROM: standard forecast or significant change
Winds: from the NNE (30 degrees) at 8 MPH (7 knots; 3.6 m/s)
Visibility: 6 or more miles 10+ km)
Ceiling: at least 12,000 feet AGL
Clouds: few clouds at 2000 feet AGL
Weather: no significant weather forecast for this period
Text: BECMG 2209/2212 23010KT
Forecast period: 0900 to 1600 UTC 22 March 2019
Forecast type: BECOMING: Conditions expected to become as follows by 1200 UTC 22 March 2019
Winds: from the SW (230 degrees) at 12 MPH (10 knots; 5.1 m/s)
Visibility: 6 or more miles 10+ km)
Ceiling: at least 12,000 feet AGL
Clouds: few clouds at 2000 feet AGL
Weather: no significant weather forecast for this period
Text: BECMG 2216/2220 02006KT
Forecast period: 1600 UTC 22 March 2019 to 0600 UTC 23 March 2019
Forecast type: BECOMING: Conditions expected to become as follows by 2000 UTC 22 March 2019
Winds: from the NNE (20 degrees) at 7 MPH (6 knots; 3.1 m/s)
Visibility: 6 or more miles 10+ km)
Ceiling: at least 12,000 feet AGL
Clouds: few clouds at 2000 feet AGL
Weather: no significant weather forecast for this period

 FLUGHAFENKARTE

 RUNWAY INFORMATION
Runway 11 Runway length 8858 ft Runway width 148 ft
Runway elevation 41 ft Runway displaced threshold 0 ft Runway heading 110
Runway 29 Runway length 8858 ft Runway width 148 ft
Runway elevation 30 ft Runway displaced threshold 0 ft Runway heading 290

 AIRPORT FREQUENCIES
Type APP Name APP Frequency 120.8 MHZ
Type TWR Name TWR Frequency 119.9 MHZ

 AIRPORT NEAR NAVIGATION AIDS
Type TACAN Name Pafos Frequency 113200 KHZ
Type VOR-DME Name Pafos Frequency 117900 KHZ
Type NDB Name Pafos Frequency 328 KHZ